Bridge City, Texas
Current Conditions -  °F | °C
As of 12:55 PM on Thursday 23 Oct 2014 (Local Time) from KORG Reporting Station
Clear Clear  
Wind Chill: 71°   Ceiling: Unl
Heat Index: 71°   Visibility: 10mi
Dew Point: 53°   Wind: 3mph
Humidity: 52%   Direction: 90°E
Pressure: 30.13"   Gusts: NA
Location:  30.02°N, 93.84°W
Report Text: KORG 231755Z AUTO 09003KT 10SM CLR 22/12 A3013 RMK AO2 T02190116 10222 20130
Loading
Personal Weather Stations






























Interactive Weather Map
Tropical Storm Tracking
New forecast layout! Learn more

10-Day Weather Forecast

Advertisements
Track Severe Weather on mobile